sensor_id;sensor_type;location;lat;lon;timestamp;P1;durP1;ratioP1;P2;durP2;ratioP2
72557;SDS011;60583;50.094;8.748;2022-07-21T00:01:03;22.08;;;18.52;;
72557;SDS011;60583;50.094;8.748;2022-07-21T00:03:28;23.10;;;18.00;;
72557;SDS011;60583;50.094;8.748;2022-07-21T00:05:54;20.98;;;16.65;;
72557;SDS011;60583;50.094;8.748;2022-07-21T00:08:19;23.98;;;17.20;;
72557;SDS011;60583;50.094;8.748;2022-07-21T00:10:44;23.38;;;16.60;;
72557;SDS011;60583;50.094;8.748;2022-07-21T00:13:10;20.65;;;17.30;;
72557;SDS011;60583;50.094;8.748;2022-07-21T00:15:35;22.08;;;16.83;;
72557;SDS011;60583;50.094;8.748;2022-07-21T00:18:01;22.00;;;17.30;;
72557;SDS011;60583;50.094;8.748;2022-07-21T00:20:26;23.15;;;17.98;;
72557;SDS011;60583;50.094;8.748;2022-07-21T00:22:53;24.35;;;19.10;;
72557;SDS011;60583;50.094;8.748;2022-07-21T00:25:18;21.35;;;17.05;;
72557;SDS011;60583;50.094;8.748;2022-07-21T00:27:44;22.20;;;16.80;;
72557;SDS011;60583;50.094;8.748;2022-07-21T00:30:09;23.08;;;18.98;;
72557;SDS011;60583;50.094;8.748;2022-07-21T00:32:36;21.77;;;17.85;;
72557;SDS011;60583;50.094;8.748;2022-07-21T00:35:03;21.60;;;16.67;;
72557;SDS011;60583;50.094;8.748;2022-07-21T00:37:29;19.13;;;16.25;;
72557;SDS011;60583;50.094;8.748;2022-07-21T00:39:55;19.80;;;15.90;;
72557;SDS011;60583;50.094;8.748;2022-07-21T00:42:24;18.70;;;15.57;;
72557;SDS011;60583;50.094;8.748;2022-07-21T00:44:51;23.08;;;17.17;;
72557;SDS011;60583;50.094;8.748;2022-07-21T00:47:20;19.30;;;16.02;;
72557;SDS011;60583;50.094;8.748;2022-07-21T00:49:46;22.00;;;16.52;;
72557;SDS011;60583;50.094;8.748;2022-07-21T00:52:12;21.15;;;16.20;;
72557;SDS011;60583;50.094;8.748;2022-07-21T00:54:38;21.15;;;16.15;;
72557;SDS011;60583;50.094;8.748;2022-07-21T00:57:04;18.85;;;14.82;;
72557;SDS011;60583;50.094;8.748;2022-07-21T00:59:30;22.73;;;16.40;;
72557;SDS011;60583;50.094;8.748;2022-07-21T01:01:55;20.45;;;15.85;;
72557;SDS011;60583;50.094;8.748;2022-07-21T01:04:20;19.35;;;15.60;;
72557;SDS011;60583;50.094;8.748;2022-07-21T01:06:46;23.38;;;16.50;;
72557;SDS011;60583;50.094;8.748;2022-07-21T01:09:12;23.42;;;18.20;;
72557;SDS011;60583;50.094;8.748;2022-07-21T01:11:37;22.15;;;16.45;;
72557;SDS011;60583;50.094;8.748;2022-07-21T01:14:04;22.20;;;16.25;;
72557;SDS011;60583;50.094;8.748;2022-07-21T01:16:30;23.52;;;17.42;;
72557;SDS011;60583;50.094;8.748;2022-07-21T01:18:56;22.10;;;17.75;;
72557;SDS011;60583;50.094;8.748;2022-07-21T01:21:30;21.50;;;17.00;;
72557;SDS011;60583;50.094;8.748;2022-07-21T01:23:57;23.23;;;15.90;;
72557;SDS011;60583;50.094;8.748;2022-07-21T01:26:24;21.35;;;17.25;;
72557;SDS011;60583;50.094;8.748;2022-07-21T01:28:50;21.40;;;16.90;;
72557;SDS011;60583;50.094;8.748;2022-07-21T01:31:16;23.05;;;16.52;;
72557;SDS011;60583;50.094;8.748;2022-07-21T01:33:41;20.10;;;15.88;;
72557;SDS011;60583;50.094;8.748;2022-07-21T01:36:07;23.08;;;16.50;;
72557;SDS011;60583;50.094;8.748;2022-07-21T01:38:32;22.58;;;16.67;;
72557;SDS011;60583;50.094;8.748;2022-07-21T01:41:16;20.05;;;16.00;;
72557;SDS011;60583;50.094;8.748;2022-07-21T01:44:02;23.33;;;16.92;;
72557;SDS011;60583;50.094;8.748;2022-07-21T01:46:30;26.17;;;18.10;;
72557;SDS011;60583;50.094;8.748;2022-07-21T01:48:57;22.85;;;17.05;;
72557;SDS011;60583;50.094;8.748;2022-07-21T01:51:22;23.80;;;16.70;;
72557;SDS011;60583;50.094;8.748;2022-07-21T01:53:48;23.65;;;18.05;;
72557;SDS011;60583;50.094;8.748;2022-07-21T01:56:14;24.83;;;17.92;;
72557;SDS011;60583;50.094;8.748;2022-07-21T01:58:39;25.05;;;17.80;;
72557;SDS011;60583;50.094;8.748;2022-07-21T02:01:04;25.10;;;17.80;;
72557;SDS011;60583;50.094;8.748;2022-07-21T02:03:30;26.20;;;18.48;;
72557;SDS011;60583;50.094;8.748;2022-07-21T02:06:04;26.80;;;18.42;;
72557;SDS011;60583;50.094;8.748;2022-07-21T02:08:31;25.98;;;18.35;;
72557;SDS011;60583;50.094;8.748;2022-07-21T02:10:57;26.83;;;18.02;;
72557;SDS011;60583;50.094;8.748;2022-07-21T02:13:22;24.08;;;18.67;;
72557;SDS011;60583;50.094;8.748;2022-07-21T02:15:48;25.60;;;18.25;;
72557;SDS011;60583;50.094;8.748;2022-07-21T02:18:13;25.02;;;18.02;;
72557;SDS011;60583;50.094;8.748;2022-07-21T02:20:39;25.52;;;18.17;;
72557;SDS011;60583;50.094;8.748;2022-07-21T02:23:04;24.77;;;17.80;;
72557;SDS011;60583;50.094;8.748;2022-07-21T02:25:30;24.63;;;17.90;;
72557;SDS011;60583;50.094;8.748;2022-07-21T02:27:55;21.63;;;15.98;;
72557;SDS011;60583;50.094;8.748;2022-07-21T02:30:20;21.52;;;17.15;;
72557;SDS011;60583;50.094;8.748;2022-07-21T02:32:46;21.00;;;15.25;;
72557;SDS011;60583;50.094;8.748;2022-07-21T02:35:11;23.95;;;16.55;;
72557;SDS011;60583;50.094;8.748;2022-07-21T02:37:37;20.15;;;14.80;;
72557;SDS011;60583;50.094;8.748;2022-07-21T02:40:03;18.08;;;13.48;;
72557;SDS011;60583;50.094;8.748;2022-07-21T02:42:29;15.73;;;11.82;;
72557;SDS011;60583;50.094;8.748;2022-07-21T02:44:54;14.85;;;11.60;;
72557;SDS011;60583;50.094;8.748;2022-07-21T02:47:20;13.82;;;11.02;;
72557;SDS011;60583;50.094;8.748;2022-07-21T02:49:45;14.48;;;9.75;;
72557;SDS011;60583;50.094;8.748;2022-07-21T02:52:12;11.43;;;8.85;;
72557;SDS011;60583;50.094;8.748;2022-07-21T02:54:38;12.23;;;9.38;;
72557;SDS011;60583;50.094;8.748;2022-07-21T02:57:03;11.40;;;8.75;;
72557;SDS011;60583;50.094;8.748;2022-07-21T02:59:28;12.43;;;8.70;;
72557;SDS011;60583;50.094;8.748;2022-07-21T03:01:54;10.40;;;8.43;;
72557;SDS011;60583;50.094;8.748;2022-07-21T03:04:19;11.55;;;8.52;;
72557;SDS011;60583;50.094;8.748;2022-07-21T03:06:45;12.18;;;7.53;;
72557;SDS011;60583;50.094;8.748;2022-07-21T03:09:10;10.57;;;8.25;;
72557;SDS011;60583;50.094;8.748;2022-07-21T03:11:36;13.45;;;9.00;;
72557;SDS011;60583;50.094;8.748;2022-07-21T03:14:01;11.32;;;8.82;;
72557;SDS011;60583;50.094;8.748;2022-07-21T03:16:27;11.32;;;8.70;;
72557;SDS011;60583;50.094;8.748;2022-07-21T03:18:52;11.02;;;8.50;;
72557;SDS011;60583;50.094;8.748;2022-07-21T03:21:18;12.20;;;8.23;;
72557;SDS011;60583;50.094;8.748;2022-07-21T03:23:43;10.45;;;7.95;;
72557;SDS011;60583;50.094;8.748;2022-07-21T03:26:14;10.77;;;8.20;;
72557;SDS011;60583;50.094;8.748;2022-07-21T03:28:40;10.88;;;7.90;;
72557;SDS011;60583;50.094;8.748;2022-07-21T03:31:06;12.15;;;7.63;;
72557;SDS011;60583;50.094;8.748;2022-07-21T03:33:32;11.65;;;7.78;;
72557;SDS011;60583;50.094;8.748;2022-07-21T03:35:58;9.05;;;7.20;;
72557;SDS011;60583;50.094;8.748;2022-07-21T03:38:24;10.93;;;7.43;;
72557;SDS011;60583;50.094;8.748;2022-07-21T03:40:49;10.63;;;7.30;;
72557;SDS011;60583;50.094;8.748;2022-07-21T03:43:15;9.48;;;7.45;;
72557;SDS011;60583;50.094;8.748;2022-07-21T03:45:41;10.90;;;8.38;;
72557;SDS011;60583;50.094;8.748;2022-07-21T03:48:15;11.50;;;8.43;;
72557;SDS011;60583;50.094;8.748;2022-07-21T03:50:41;10.50;;;8.43;;
72557;SDS011;60583;50.094;8.748;2022-07-21T03:53:07;9.88;;;7.88;;
72557;SDS011;60583;50.094;8.748;2022-07-21T03:55:33;10.27;;;8.07;;
72557;SDS011;60583;50.094;8.748;2022-07-21T03:58:01;10.68;;;7.80;;
72557;SDS011;60583;50.094;8.748;2022-07-21T04:00:30;12.13;;;7.53;;
72557;SDS011;60583;50.094;8.748;2022-07-21T04:03:01;9.73;;;7.22;;
72557;SDS011;60583;50.094;8.748;2022-07-21T04:05:28;9.60;;;7.10;;
72557;SDS011;60583;50.094;8.748;2022-07-21T04:07:53;9.10;;;6.57;;
72557;SDS011;60583;50.094;8.748;2022-07-21T04:10:24;9.95;;;6.63;;
72557;SDS011;60583;50.094;8.748;2022-07-21T04:12:51;9.52;;;6.32;;
72557;SDS011;60583;50.094;8.748;2022-07-21T04:15:17;9.90;;;6.25;;
72557;SDS011;60583;50.094;8.748;2022-07-21T04:17:43;11.27;;;6.53;;
72557;SDS011;60583;50.094;8.748;2022-07-21T04:20:10;9.20;;;6.22;;
72557;SDS011;60583;50.094;8.748;2022-07-21T04:22:36;9.10;;;6.68;;
72557;SDS011;60583;50.094;8.748;2022-07-21T04:25:03;8.95;;;6.55;;
72557;SDS011;60583;50.094;8.748;2022-07-21T04:27:31;10.70;;;7.18;;
72557;SDS011;60583;50.094;8.748;2022-07-21T04:29:57;9.82;;;7.15;;
72557;SDS011;60583;50.094;8.748;2022-07-21T04:32:23;8.32;;;6.50;;
72557;SDS011;60583;50.094;8.748;2022-07-21T04:34:48;8.82;;;7.40;;
72557;SDS011;60583;50.094;8.748;2022-07-21T04:37:14;10.65;;;7.43;;
72557;SDS011;60583;50.094;8.748;2022-07-21T04:39:39;9.27;;;7.32;;
72557;SDS011;60583;50.094;8.748;2022-07-21T04:42:05;9.35;;;6.95;;
72557;SDS011;60583;50.094;8.748;2022-07-21T04:44:30;11.10;;;8.57;;
72557;SDS011;60583;50.094;8.748;2022-07-21T04:46:56;10.90;;;7.97;;
72557;SDS011;60583;50.094;8.748;2022-07-21T04:49:22;11.07;;;7.63;;
72557;SDS011;60583;50.094;8.748;2022-07-21T04:51:47;10.50;;;7.53;;
72557;SDS011;60583;50.094;8.748;2022-07-21T04:54:12;9.88;;;7.72;;
72557;SDS011;60583;50.094;8.748;2022-07-21T04:56:39;9.95;;;7.38;;
72557;SDS011;60583;50.094;8.748;2022-07-21T04:59:08;10.02;;;7.50;;
72557;SDS011;60583;50.094;8.748;2022-07-21T05:01:34;9.32;;;6.95;;
72557;SDS011;60583;50.094;8.748;2022-07-21T05:04:00;8.80;;;6.50;;
72557;SDS011;60583;50.094;8.748;2022-07-21T05:06:25;9.75;;;7.40;;
72557;SDS011;60583;50.094;8.748;2022-07-21T05:08:51;10.68;;;7.00;;
72557;SDS011;60583;50.094;8.748;2022-07-21T05:11:16;10.68;;;7.18;;
72557;SDS011;60583;50.094;8.748;2022-07-21T05:13:42;9.60;;;7.57;;
72557;SDS011;60583;50.094;8.748;2022-07-21T05:16:07;9.80;;;7.60;;
72557;SDS011;60583;50.094;8.748;2022-07-21T05:18:33;11.00;;;7.40;;
72557;SDS011;60583;50.094;8.748;2022-07-21T05:20:59;9.95;;;7.03;;
72557;SDS011;60583;50.094;8.748;2022-07-21T05:23:24;10.68;;;7.93;;
72557;SDS011;60583;50.094;8.748;2022-07-21T05:25:50;10.35;;;7.20;;
72557;SDS011;60583;50.094;8.748;2022-07-21T05:28:15;10.07;;;7.45;;
72557;SDS011;60583;50.094;8.748;2022-07-21T05:30:41;10.98;;;7.68;;
72557;SDS011;60583;50.094;8.748;2022-07-21T05:33:06;9.48;;;7.38;;
72557;SDS011;60583;50.094;8.748;2022-07-21T05:35:31;9.95;;;7.18;;
72557;SDS011;60583;50.094;8.748;2022-07-21T05:37:57;9.38;;;7.18;;
72557;SDS011;60583;50.094;8.748;2022-07-21T05:40:22;9.65;;;7.60;;
72557;SDS011;60583;50.094;8.748;2022-07-21T05:42:48;10.25;;;7.35;;
72557;SDS011;60583;50.094;8.748;2022-07-21T05:45:13;11.18;;;7.95;;
72557;SDS011;60583;50.094;8.748;2022-07-21T05:47:39;11.75;;;7.65;;
72557;SDS011;60583;50.094;8.748;2022-07-21T05:50:05;10.40;;;7.60;;
72557;SDS011;60583;50.094;8.748;2022-07-21T05:52:31;11.82;;;7.53;;
72557;SDS011;60583;50.094;8.748;2022-07-21T05:54:57;10.45;;;7.93;;
72557;SDS011;60583;50.094;8.748;2022-07-21T05:57:22;9.52;;;7.50;;
72557;SDS011;60583;50.094;8.748;2022-07-21T05:59:48;11.30;;;7.78;;
72557;SDS011;60583;50.094;8.748;2022-07-21T06:02:13;10.88;;;7.53;;
72557;SDS011;60583;50.094;8.748;2022-07-21T06:04:39;11.20;;;7.40;;
72557;SDS011;60583;50.094;8.748;2022-07-21T06:07:04;8.75;;;7.55;;
72557;SDS011;60583;50.094;8.748;2022-07-21T06:09:30;10.52;;;7.57;;
72557;SDS011;60583;50.094;8.748;2022-07-21T06:11:55;9.85;;;7.53;;
72557;SDS011;60583;50.094;8.748;2022-07-21T06:14:21;9.05;;;7.30;;
72557;SDS011;60583;50.094;8.748;2022-07-21T06:16:47;9.85;;;7.82;;
72557;SDS011;60583;50.094;8.748;2022-07-21T06:19:12;11.02;;;7.63;;
72557;SDS011;60583;50.094;8.748;2022-07-21T06:21:38;10.07;;;8.18;;
72557;SDS011;60583;50.094;8.748;2022-07-21T06:24:05;9.38;;;7.43;;
72557;SDS011;60583;50.094;8.748;2022-07-21T06:26:31;9.57;;;7.40;;
72557;SDS011;60583;50.094;8.748;2022-07-21T06:28:56;10.45;;;7.30;;
72557;SDS011;60583;50.094;8.748;2022-07-21T06:31:22;9.50;;;6.95;;
72557;SDS011;60583;50.094;8.748;2022-07-21T06:33:47;8.63;;;7.18;;
72557;SDS011;60583;50.094;8.748;2022-07-21T06:36:12;10.07;;;7.57;;
72557;SDS011;60583;50.094;8.748;2022-07-21T06:38:38;11.38;;;7.80;;
72557;SDS011;60583;50.094;8.748;2022-07-21T06:41:03;10.88;;;8.07;;
72557;SDS011;60583;50.094;8.748;2022-07-21T06:43:29;10.43;;;7.13;;
72557;SDS011;60583;50.094;8.748;2022-07-21T06:45:54;10.93;;;7.85;;
72557;SDS011;60583;50.094;8.748;2022-07-21T06:48:20;9.07;;;7.13;;
72557;SDS011;60583;50.094;8.748;2022-07-21T06:50:49;10.23;;;7.72;;
72557;SDS011;60583;50.094;8.748;2022-07-21T06:53:15;9.35;;;7.38;;
72557;SDS011;60583;50.094;8.748;2022-07-21T06:55:41;9.13;;;7.30;;
72557;SDS011;60583;50.094;8.748;2022-07-21T06:58:11;10.00;;;6.85;;
72557;SDS011;60583;50.094;8.748;2022-07-21T07:00:38;11.00;;;7.78;;
72557;SDS011;60583;50.094;8.748;2022-07-21T07:03:04;10.68;;;7.45;;
72557;SDS011;60583;50.094;8.748;2022-07-21T07:05:29;9.93;;;7.43;;
72557;SDS011;60583;50.094;8.748;2022-07-21T07:07:56;9.73;;;7.88;;
72557;SDS011;60583;50.094;8.748;2022-07-21T07:10:22;9.98;;;7.28;;
72557;SDS011;60583;50.094;8.748;2022-07-21T07:12:47;10.60;;;8.20;;
72557;SDS011;60583;50.094;8.748;2022-07-21T07:15:13;8.95;;;7.68;;
72557;SDS011;60583;50.094;8.748;2022-07-21T07:17:38;9.93;;;7.90;;
72557;SDS011;60583;50.094;8.748;2022-07-21T07:20:04;10.23;;;7.25;;
72557;SDS011;60583;50.094;8.748;2022-07-21T07:22:31;10.40;;;7.90;;
72557;SDS011;60583;50.094;8.748;2022-07-21T07:24:57;9.95;;;6.70;;
72557;SDS011;60583;50.094;8.748;2022-07-21T07:27:22;10.20;;;7.78;;
72557;SDS011;60583;50.094;8.748;2022-07-21T07:29:47;9.27;;;7.50;;
72557;SDS011;60583;50.094;8.748;2022-07-21T07:32:13;9.20;;;6.95;;
72557;SDS011;60583;50.094;8.748;2022-07-21T07:34:38;10.50;;;6.90;;
72557;SDS011;60583;50.094;8.748;2022-07-21T07:37:04;12.27;;;7.22;;
72557;SDS011;60583;50.094;8.748;2022-07-21T07:39:29;8.75;;;6.75;;
72557;SDS011;60583;50.094;8.748;2022-07-21T07:41:54;9.50;;;7.60;;
72557;SDS011;60583;50.094;8.748;2022-07-21T07:44:20;9.95;;;7.18;;
72557;SDS011;60583;50.094;8.748;2022-07-21T07:46:46;10.30;;;6.93;;
72557;SDS011;60583;50.094;8.748;2022-07-21T07:49:11;8.60;;;6.68;;
72557;SDS011;60583;50.094;8.748;2022-07-21T07:51:37;9.02;;;6.50;;
72557;SDS011;60583;50.094;8.748;2022-07-21T07:54:03;9.13;;;6.38;;
72557;SDS011;60583;50.094;8.748;2022-07-21T07:56:29;9.00;;;7.03;;
72557;SDS011;60583;50.094;8.748;2022-07-21T07:58:55;9.90;;;7.22;;
72557;SDS011;60583;50.094;8.748;2022-07-21T08:01:20;8.68;;;6.32;;
72557;SDS011;60583;50.094;8.748;2022-07-21T08:03:46;9.18;;;6.72;;
72557;SDS011;60583;50.094;8.748;2022-07-21T08:06:12;10.02;;;6.88;;
72557;SDS011;60583;50.094;8.748;2022-07-21T08:08:37;9.65;;;6.53;;
72557;SDS011;60583;50.094;8.748;2022-07-21T08:11:03;7.53;;;6.20;;
72557;SDS011;60583;50.094;8.748;2022-07-21T08:13:29;10.93;;;6.95;;
72557;SDS011;60583;50.094;8.748;2022-07-21T08:15:54;9.00;;;6.72;;
72557;SDS011;60583;50.094;8.748;2022-07-21T08:18:20;9.88;;;7.10;;
72557;SDS011;60583;50.094;8.748;2022-07-21T08:20:45;9.43;;;6.47;;
72557;SDS011;60583;50.094;8.748;2022-07-21T08:23:12;8.57;;;6.55;;
72557;SDS011;60583;50.094;8.748;2022-07-21T08:25:38;7.60;;;6.22;;
72557;SDS011;60583;50.094;8.748;2022-07-21T08:28:04;8.80;;;6.40;;
72557;SDS011;60583;50.094;8.748;2022-07-21T08:30:29;8.07;;;6.30;;
72557;SDS011;60583;50.094;8.748;2022-07-21T08:32:55;7.50;;;6.32;;
72557;SDS011;60583;50.094;8.748;2022-07-21T08:35:21;8.13;;;5.85;;
72557;SDS011;60583;50.094;8.748;2022-07-21T08:40:44;8.13;;;5.93;;
72557;SDS011;60583;50.094;8.748;2022-07-21T08:43:10;8.85;;;6.53;;
72557;SDS011;60583;50.094;8.748;2022-07-21T08:45:38;10.48;;;6.63;;
72557;SDS011;60583;50.094;8.748;2022-07-21T08:48:04;7.25;;;5.72;;
72557;SDS011;60583;50.094;8.748;2022-07-21T08:50:32;7.85;;;5.88;;
72557;SDS011;60583;50.094;8.748;2022-07-21T08:53:02;9.18;;;6.05;;
72557;SDS011;60583;50.094;8.748;2022-07-21T08:55:29;6.78;;;5.53;;
72557;SDS011;60583;50.094;8.748;2022-07-21T08:57:56;7.90;;;5.68;;
72557;SDS011;60583;50.094;8.748;2022-07-21T09:00:22;7.55;;;5.68;;
72557;SDS011;60583;50.094;8.748;2022-07-21T09:02:47;6.80;;;5.68;;
72557;SDS011;60583;50.094;8.748;2022-07-21T09:05:12;8.68;;;6.07;;
72557;SDS011;60583;50.094;8.748;2022-07-21T09:07:47;6.93;;;5.57;;
72557;SDS011;60583;50.094;8.748;2022-07-21T09:10:24;7.75;;;6.00;;
72557;SDS011;60583;50.094;8.748;2022-07-21T09:12:52;6.97;;;5.50;;
72557;SDS011;60583;50.094;8.748;2022-07-21T09:15:23;8.55;;;5.80;;
72557;SDS011;60583;50.094;8.748;2022-07-21T09:18:06;6.78;;;5.60;;
72557;SDS011;60583;50.094;8.748;2022-07-21T09:20:37;6.15;;;5.03;;
72557;SDS011;60583;50.094;8.748;2022-07-21T09:23:08;6.70;;;5.03;;
72557;SDS011;60583;50.094;8.748;2022-07-21T09:25:40;7.32;;;5.22;;
72557;SDS011;60583;50.094;8.748;2022-07-21T09:28:08;7.75;;;5.20;;
72557;SDS011;60583;50.094;8.748;2022-07-21T09:33:24;7.53;;;6.00;;
72557;SDS011;60583;50.094;8.748;2022-07-21T09:36:09;6.57;;;4.88;;
72557;SDS011;60583;50.094;8.748;2022-07-21T09:38:38;6.28;;;4.07;;
72557;SDS011;60583;50.094;8.748;2022-07-21T09:41:13;6.47;;;4.40;;
72557;SDS011;60583;50.094;8.748;2022-07-21T09:43:42;5.80;;;4.43;;
72557;SDS011;60583;50.094;8.748;2022-07-21T09:46:18;6.82;;;4.82;;
72557;SDS011;60583;50.094;8.748;2022-07-21T09:48:52;6.18;;;4.47;;
72557;SDS011;60583;50.094;8.748;2022-07-21T09:51:21;7.03;;;4.47;;
72557;SDS011;60583;50.094;8.748;2022-07-21T09:54:02;6.03;;;5.10;;
72557;SDS011;60583;50.094;8.748;2022-07-21T09:56:36;5.97;;;4.93;;
72557;SDS011;60583;50.094;8.748;2022-07-21T09:59:06;6.57;;;4.63;;
72557;SDS011;60583;50.094;8.748;2022-07-21T10:01:33;5.43;;;4.40;;
72557;SDS011;60583;50.094;8.748;2022-07-21T10:04:00;6.78;;;4.45;;
72557;SDS011;60583;50.094;8.748;2022-07-21T10:06:27;6.47;;;4.38;;
72557;SDS011;60583;50.094;8.748;2022-07-21T10:08:57;6.03;;;4.28;;
72557;SDS011;60583;50.094;8.748;2022-07-21T10:11:24;6.05;;;4.43;;
72557;SDS011;60583;50.094;8.748;2022-07-21T10:13:50;6.40;;;4.82;;
72557;SDS011;60583;50.094;8.748;2022-07-21T10:16:16;5.55;;;3.80;;
72557;SDS011;60583;50.094;8.748;2022-07-21T10:24:37;6.80;;;4.60;;
72557;SDS011;60583;50.094;8.748;2022-07-21T10:27:05;7.80;;;4.40;;
72557;SDS011;60583;50.094;8.748;2022-07-21T10:32:13;6.18;;;4.22;;
72557;SDS011;60583;50.094;8.748;2022-07-21T10:34:39;5.70;;;4.80;;
72557;SDS011;60583;50.094;8.748;2022-07-21T10:37:05;6.53;;;4.32;;
72557;SDS011;60583;50.094;8.748;2022-07-21T10:39:31;6.90;;;4.32;;
72557;SDS011;60583;50.094;8.748;2022-07-21T10:41:58;5.43;;;3.58;;
72557;SDS011;60583;50.094;8.748;2022-07-21T10:46:58;6.47;;;4.00;;
72557;SDS011;60583;50.094;8.748;2022-07-21T10:57:38;6.03;;;4.32;;
72557;SDS011;60583;50.094;8.748;2022-07-21T11:00:23;5.55;;;4.43;;
72557;SDS011;60583;50.094;8.748;2022-07-21T11:03:02;6.97;;;4.40;;
72557;SDS011;60583;50.094;8.748;2022-07-21T11:05:37;6.25;;;4.55;;
72557;SDS011;60583;50.094;8.748;2022-07-21T11:08:22;6.47;;;4.40;;
72557;SDS011;60583;50.094;8.748;2022-07-21T11:10:58;6.85;;;4.85;;
72557;SDS011;60583;50.094;8.748;2022-07-21T11:13:56;6.60;;;4.90;;
72557;SDS011;60583;50.094;8.748;2022-07-21T11:22:11;5.88;;;4.22;;
72557;SDS011;60583;50.094;8.748;2022-07-21T11:25:00;7.03;;;4.70;;
72557;SDS011;60583;50.094;8.748;2022-07-21T11:27:28;6.75;;;4.63;;
72557;SDS011;60583;50.094;8.748;2022-07-21T11:29:56;6.03;;;4.28;;
72557;SDS011;60583;50.094;8.748;2022-07-21T11:32:23;6.20;;;4.60;;
72557;SDS011;60583;50.094;8.748;2022-07-21T11:34:50;5.68;;;4.28;;
72557;SDS011;60583;50.094;8.748;2022-07-21T11:37:19;6.18;;;4.38;;
72557;SDS011;60583;50.094;8.748;2022-07-21T11:40:11;7.13;;;4.25;;
72557;SDS011;60583;50.094;8.748;2022-07-21T11:42:38;6.05;;;4.18;;
72557;SDS011;60583;50.094;8.748;2022-07-21T11:45:05;6.30;;;3.92;;
72557;SDS011;60583;50.094;8.748;2022-07-21T11:47:32;5.25;;;4.05;;
72557;SDS011;60583;50.094;8.748;2022-07-21T11:49:59;5.20;;;4.03;;
72557;SDS011;60583;50.094;8.748;2022-07-21T11:52:26;5.30;;;3.85;;
72557;SDS011;60583;50.094;8.748;2022-07-21T11:54:54;5.85;;;3.45;;
72557;SDS011;60583;50.094;8.748;2022-07-21T11:57:21;5.03;;;3.75;;
72557;SDS011;60583;50.094;8.748;2022-07-21T11:59:48;5.78;;;3.22;;
72557;SDS011;60583;50.094;8.748;2022-07-21T12:02:16;4.50;;;3.40;;
72557;SDS011;60583;50.094;8.748;2022-07-21T12:07:50;5.32;;;3.88;;
72557;SDS011;60583;50.094;8.748;2022-07-21T12:10:13;4.65;;;3.22;;
72557;SDS011;60583;50.094;8.748;2022-07-21T12:12:46;3.92;;;3.22;;
72557;SDS011;60583;50.094;8.748;2022-07-21T12:15:15;5.15;;;3.75;;
72557;SDS011;60583;50.094;8.748;2022-07-21T12:20:12;4.93;;;3.35;;
72557;SDS011;60583;50.094;8.748;2022-07-21T12:22:42;4.15;;;3.30;;
72557;SDS011;60583;50.094;8.748;2022-07-21T12:25:11;5.95;;;3.40;;
72557;SDS011;60583;50.094;8.748;2022-07-21T12:27:39;4.53;;;3.13;;
72557;SDS011;60583;50.094;8.748;2022-07-21T12:30:07;4.18;;;3.17;;
72557;SDS011;60583;50.094;8.748;2022-07-21T12:32:39;5.43;;;3.42;;
72557;SDS011;60583;50.094;8.748;2022-07-21T12:35:15;5.10;;;3.40;;
72557;SDS011;60583;50.094;8.748;2022-07-21T12:38:01;7.32;;;3.60;;
72557;SDS011;60583;50.094;8.748;2022-07-21T12:40:29;6.50;;;3.95;;
72557;SDS011;60583;50.094;8.748;2022-07-21T12:43:10;7.50;;;4.40;;
72557;SDS011;60583;50.094;8.748;2022-07-21T12:45:51;6.68;;;3.80;;
72557;SDS011;60583;50.094;8.748;2022-07-21T12:48:35;5.45;;;3.90;;
72557;SDS011;60583;50.094;8.748;2022-07-21T12:53:35;6.88;;;3.83;;
72557;SDS011;60583;50.094;8.748;2022-07-21T12:56:02;5.72;;;3.85;;
72557;SDS011;60583;50.094;8.748;2022-07-21T12:58:28;6.43;;;4.40;;
72557;SDS011;60583;50.094;8.748;2022-07-21T13:00:53;6.30;;;4.53;;
72557;SDS011;60583;50.094;8.748;2022-07-21T13:03:19;7.20;;;4.72;;
72557;SDS011;60583;50.094;8.748;2022-07-21T13:05:44;6.03;;;4.60;;
72557;SDS011;60583;50.094;8.748;2022-07-21T13:08:10;5.35;;;4.30;;
72557;SDS011;60583;50.094;8.748;2022-07-21T13:10:35;6.00;;;4.68;;
72557;SDS011;60583;50.094;8.748;2022-07-21T13:13:01;6.03;;;4.82;;
72557;SDS011;60583;50.094;8.748;2022-07-21T13:15:26;7.40;;;5.43;;
72557;SDS011;60583;50.094;8.748;2022-07-21T13:17:52;6.60;;;5.45;;
72557;SDS011;60583;50.094;8.748;2022-07-21T13:20:17;7.07;;;5.78;;
72557;SDS011;60583;50.094;8.748;2022-07-21T13:22:43;7.18;;;5.22;;
72557;SDS011;60583;50.094;8.748;2022-07-21T13:25:09;8.52;;;5.75;;
72557;SDS011;60583;50.094;8.748;2022-07-21T13:27:36;6.00;;;5.03;;
72557;SDS011;60583;50.094;8.748;2022-07-21T13:30:05;7.30;;;5.70;;
72557;SDS011;60583;50.094;8.748;2022-07-21T13:32:33;8.18;;;5.90;;
72557;SDS011;60583;50.094;8.748;2022-07-21T13:34:59;7.88;;;6.05;;
72557;SDS011;60583;50.094;8.748;2022-07-21T13:37:24;6.75;;;5.88;;
72557;SDS011;60583;50.094;8.748;2022-07-21T13:39:50;9.02;;;6.10;;
72557;SDS011;60583;50.094;8.748;2022-07-21T13:42:15;7.60;;;5.78;;
72557;SDS011;60583;50.094;8.748;2022-07-21T13:44:41;8.10;;;6.85;;
72557;SDS011;60583;50.094;8.748;2022-07-21T13:47:06;9.13;;;6.47;;
72557;SDS011;60583;50.094;8.748;2022-07-21T13:49:31;8.13;;;6.40;;
72557;SDS011;60583;50.094;8.748;2022-07-21T13:51:57;7.47;;;6.28;;
72557;SDS011;60583;50.094;8.748;2022-07-21T13:54:22;7.65;;;6.00;;
72557;SDS011;60583;50.094;8.748;2022-07-21T13:56:48;8.10;;;6.53;;
72557;SDS011;60583;50.094;8.748;2022-07-21T13:59:13;7.85;;;6.10;;
72557;SDS011;60583;50.094;8.748;2022-07-21T14:01:39;7.53;;;6.38;;
72557;SDS011;60583;50.094;8.748;2022-07-21T14:04:04;7.90;;;6.97;;
72557;SDS011;60583;50.094;8.748;2022-07-21T14:06:29;9.32;;;6.88;;
72557;SDS011;60583;50.094;8.748;2022-07-21T14:08:55;7.40;;;6.18;;
72557;SDS011;60583;50.094;8.748;2022-07-21T14:11:20;8.20;;;6.32;;
72557;SDS011;60583;50.094;8.748;2022-07-21T14:13:48;9.18;;;6.88;;
72557;SDS011;60583;50.094;8.748;2022-07-21T14:16:14;8.82;;;6.72;;
72557;SDS011;60583;50.094;8.748;2022-07-21T14:18:39;9.77;;;6.72;;
72557;SDS011;60583;50.094;8.748;2022-07-21T14:21:05;9.63;;;7.22;;
72557;SDS011;60583;50.094;8.748;2022-07-21T14:23:30;10.68;;;6.85;;
72557;SDS011;60583;50.094;8.748;2022-07-21T14:25:57;8.70;;;6.93;;
72557;SDS011;60583;50.094;8.748;2022-07-21T14:28:24;8.88;;;6.53;;
72557;SDS011;60583;50.094;8.748;2022-07-21T14:30:49;7.60;;;6.43;;
72557;SDS011;60583;50.094;8.748;2022-07-21T14:33:15;8.70;;;7.07;;
72557;SDS011;60583;50.094;8.748;2022-07-21T14:35:40;7.75;;;6.28;;
72557;SDS011;60583;50.094;8.748;2022-07-21T14:38:06;7.30;;;5.97;;
72557;SDS011;60583;50.094;8.748;2022-07-21T14:40:31;8.05;;;6.25;;
72557;SDS011;60583;50.094;8.748;2022-07-21T14:42:58;6.88;;;5.60;;
72557;SDS011;60583;50.094;8.748;2022-07-21T14:45:23;7.18;;;5.45;;
72557;SDS011;60583;50.094;8.748;2022-07-21T14:47:52;7.25;;;5.72;;
72557;SDS011;60583;50.094;8.748;2022-07-21T14:50:20;7.57;;;6.35;;
72557;SDS011;60583;50.094;8.748;2022-07-21T14:52:46;7.40;;;5.93;;
72557;SDS011;60583;50.094;8.748;2022-07-21T14:55:12;8.88;;;7.10;;
72557;SDS011;60583;50.094;8.748;2022-07-21T14:57:37;8.30;;;6.10;;
72557;SDS011;60583;50.094;8.748;2022-07-21T15:00:03;7.28;;;6.20;;
72557;SDS011;60583;50.094;8.748;2022-07-21T15:02:30;7.93;;;5.90;;
72557;SDS011;60583;50.094;8.748;2022-07-21T15:04:56;8.23;;;7.38;;
72557;SDS011;60583;50.094;8.748;2022-07-21T15:07:21;8.68;;;6.32;;
72557;SDS011;60583;50.094;8.748;2022-07-21T15:09:47;8.52;;;6.57;;
72557;SDS011;60583;50.094;8.748;2022-07-21T15:12:13;8.30;;;6.75;;
72557;SDS011;60583;50.094;8.748;2022-07-21T15:14:39;9.18;;;6.30;;
72557;SDS011;60583;50.094;8.748;2022-07-21T15:17:05;8.68;;;6.10;;
72557;SDS011;60583;50.094;8.748;2022-07-21T15:19:30;6.90;;;5.75;;